sensor_id;sensor_type;location;lat;lon;timestamp;temperature;humidity
40808;DHT22;26523;52.504;13.498;2022-07-31T00:00:38;17.30;99.90
40808;DHT22;26523;52.504;13.498;2022-07-31T00:03:05;17.30;99.90
40808;DHT22;26523;52.504;13.498;2022-07-31T00:05:30;17.30;99.90
40808;DHT22;26523;52.504;13.498;2022-07-31T00:07:56;17.40;99.90
40808;DHT22;26523;52.504;13.498;2022-07-31T00:10:23;17.30;99.90
40808;DHT22;26523;52.504;13.498;2022-07-31T00:12:49;17.30;99.90
40808;DHT22;26523;52.504;13.498;2022-07-31T00:15:15;17.20;99.90
40808;DHT22;26523;52.504;13.498;2022-07-31T00:17:42;17.30;99.90
40808;DHT22;26523;52.504;13.498;2022-07-31T00:20:09;17.30;99.90
40808;DHT22;26523;52.504;13.498;2022-07-31T00:22:42;17.20;99.90
40808;DHT22;26523;52.504;13.498;2022-07-31T00:25:10;17.20;99.90
40808;DHT22;26523;52.504;13.498;2022-07-31T00:27:35;17.10;99.90
40808;DHT22;26523;52.504;13.498;2022-07-31T00:30:02;17.10;99.90
40808;DHT22;26523;52.504;13.498;2022-07-31T00:32:28;17.10;99.90
40808;DHT22;26523;52.504;13.498;2022-07-31T00:34:54;17.00;99.90
40808;DHT22;26523;52.504;13.498;2022-07-31T00:37:19;16.90;99.90
40808;DHT22;26523;52.504;13.498;2022-07-31T00:39:45;17.00;99.90
40808;DHT22;26523;52.504;13.498;2022-07-31T00:42:18;17.00;99.90
40808;DHT22;26523;52.504;13.498;2022-07-31T00:44:44;17.00;99.90
40808;DHT22;26523;52.504;13.498;2022-07-31T00:47:10;17.00;99.90
40808;DHT22;26523;52.504;13.498;2022-07-31T00:49:35;17.00;99.90
40808;DHT22;26523;52.504;13.498;2022-07-31T00:52:01;17.00;99.90
40808;DHT22;26523;52.504;13.498;2022-07-31T00:54:27;17.00;99.90
40808;DHT22;26523;52.504;13.498;2022-07-31T00:56:52;16.90;99.90
40808;DHT22;26523;52.504;13.498;2022-07-31T00:59:18;17.00;99.90
40808;DHT22;26523;52.504;13.498;2022-07-31T01:01:44;16.90;99.90
40808;DHT22;26523;52.504;13.498;2022-07-31T01:04:09;16.80;99.90
40808;DHT22;26523;52.504;13.498;2022-07-31T01:06:37;16.70;99.90
40808;DHT22;26523;52.504;13.498;2022-07-31T01:09:02;16.70;99.90
40808;DHT22;26523;52.504;13.498;2022-07-31T01:11:46;16.70;99.90
40808;DHT22;26523;52.504;13.498;2022-07-31T01:14:14;16.60;99.90
40808;DHT22;26523;52.504;13.498;2022-07-31T01:16:44;16.70;99.90
40808;DHT22;26523;52.504;13.498;2022-07-31T01:19:21;16.80;99.90
40808;DHT22;26523;52.504;13.498;2022-07-31T01:27:25;16.60;99.90
40808;DHT22;26523;52.504;13.498;2022-07-31T01:29:53;16.50;99.90
40808;DHT22;26523;52.504;13.498;2022-07-31T01:32:28;16.60;99.90
40808;DHT22;26523;52.504;13.498;2022-07-31T01:35:14;16.70;99.90
40808;DHT22;26523;52.504;13.498;2022-07-31T01:37:44;16.60;99.90
40808;DHT22;26523;52.504;13.498;2022-07-31T01:40:14;16.50;99.90
40808;DHT22;26523;52.504;13.498;2022-07-31T01:42:43;16.60;99.90
40808;DHT22;26523;52.504;13.498;2022-07-31T01:45:12;16.60;99.90
40808;DHT22;26523;52.504;13.498;2022-07-31T01:47:41;16.50;99.90
40808;DHT22;26523;52.504;13.498;2022-07-31T01:50:08;16.40;99.90
40808;DHT22;26523;52.504;13.498;2022-07-31T01:52:35;16.40;99.90
40808;DHT22;26523;52.504;13.498;2022-07-31T01:55:02;16.40;99.90
40808;DHT22;26523;52.504;13.498;2022-07-31T01:57:29;16.30;99.90
40808;DHT22;26523;52.504;13.498;2022-07-31T02:00:01;16.30;99.90
40808;DHT22;26523;52.504;13.498;2022-07-31T02:02:28;16.20;99.90
40808;DHT22;26523;52.504;13.498;2022-07-31T02:04:55;16.20;99.90
40808;DHT22;26523;52.504;13.498;2022-07-31T02:07:22;16.20;99.90
40808;DHT22;26523;52.504;13.498;2022-07-31T02:09:49;16.30;99.90
40808;DHT22;26523;52.504;13.498;2022-07-31T02:12:17;16.30;99.90
40808;DHT22;26523;52.504;13.498;2022-07-31T02:14:42;16.20;99.90
40808;DHT22;26523;52.504;13.498;2022-07-31T02:17:10;16.10;99.90
40808;DHT22;26523;52.504;13.498;2022-07-31T02:19:39;16.10;99.90
40808;DHT22;26523;52.504;13.498;2022-07-31T02:22:05;16.20;99.90
40808;DHT22;26523;52.504;13.498;2022-07-31T02:24:32;16.20;99.90
40808;DHT22;26523;52.504;13.498;2022-07-31T02:26:58;16.30;99.90
40808;DHT22;26523;52.504;13.498;2022-07-31T02:29:27;16.20;99.90
40808;DHT22;26523;52.504;13.498;2022-07-31T02:31:56;16.10;99.90
40808;DHT22;26523;52.504;13.498;2022-07-31T02:34:23;16.10;99.90
40808;DHT22;26523;52.504;13.498;2022-07-31T02:36:50;16.00;99.90
40808;DHT22;26523;52.504;13.498;2022-07-31T02:39:18;16.00;99.90
40808;DHT22;26523;52.504;13.498;2022-07-31T02:41:46;15.90;99.90
40808;DHT22;26523;52.504;13.498;2022-07-31T02:44:13;15.80;99.90
40808;DHT22;26523;52.504;13.498;2022-07-31T02:46:40;15.80;99.90
40808;DHT22;26523;52.504;13.498;2022-07-31T02:49:07;15.80;99.90
40808;DHT22;26523;52.504;13.498;2022-07-31T02:51:33;15.80;99.90
40808;DHT22;26523;52.504;13.498;2022-07-31T02:53:59;15.80;99.90
40808;DHT22;26523;52.504;13.498;2022-07-31T02:56:27;15.70;99.90
40808;DHT22;26523;52.504;13.498;2022-07-31T02:58:53;15.70;99.90
40808;DHT22;26523;52.504;13.498;2022-07-31T03:01:18;15.70;99.90
40808;DHT22;26523;52.504;13.498;2022-07-31T03:03:44;15.90;99.90
40808;DHT22;26523;52.504;13.498;2022-07-31T03:06:10;15.80;99.90
40808;DHT22;26523;52.504;13.498;2022-07-31T03:08:35;15.70;99.90
40808;DHT22;26523;52.504;13.498;2022-07-31T03:11:01;15.80;99.90
40808;DHT22;26523;52.504;13.498;2022-07-31T03:13:28;15.90;99.90
40808;DHT22;26523;52.504;13.498;2022-07-31T03:15:56;15.90;99.90
40808;DHT22;26523;52.504;13.498;2022-07-31T03:18:22;15.70;99.90
40808;DHT22;26523;52.504;13.498;2022-07-31T03:20:48;15.70;99.90
40808;DHT22;26523;52.504;13.498;2022-07-31T03:23:19;15.70;99.90
40808;DHT22;26523;52.504;13.498;2022-07-31T03:25:48;15.70;99.90
40808;DHT22;26523;52.504;13.498;2022-07-31T03:28:14;15.60;99.90
40808;DHT22;26523;52.504;13.498;2022-07-31T03:30:40;15.50;99.90
40808;DHT22;26523;52.504;13.498;2022-07-31T03:33:05;15.50;99.90
40808;DHT22;26523;52.504;13.498;2022-07-31T03:35:31;15.50;99.90
40808;DHT22;26523;52.504;13.498;2022-07-31T03:37:58;15.60;99.90
40808;DHT22;26523;52.504;13.498;2022-07-31T03:40:24;15.60;99.90
40808;DHT22;26523;52.504;13.498;2022-07-31T03:42:50;15.60;99.90
40808;DHT22;26523;52.504;13.498;2022-07-31T03:45:17;15.60;99.90
40808;DHT22;26523;52.504;13.498;2022-07-31T03:47:43;15.60;99.90
40808;DHT22;26523;52.504;13.498;2022-07-31T03:50:10;15.60;99.90
40808;DHT22;26523;52.504;13.498;2022-07-31T03:52:36;15.60;99.90
40808;DHT22;26523;52.504;13.498;2022-07-31T03:55:02;15.60;99.90
40808;DHT22;26523;52.504;13.498;2022-07-31T03:57:28;15.60;99.90
40808;DHT22;26523;52.504;13.498;2022-07-31T03:59:56;15.60;99.90
40808;DHT22;26523;52.504;13.498;2022-07-31T04:02:26;15.60;99.90
40808;DHT22;26523;52.504;13.498;2022-07-31T04:04:51;15.70;99.90
40808;DHT22;26523;52.504;13.498;2022-07-31T04:07:17;15.80;99.90
40808;DHT22;26523;52.504;13.498;2022-07-31T04:09:43;16.00;99.90
40808;DHT22;26523;52.504;13.498;2022-07-31T04:12:09;16.20;99.90
40808;DHT22;26523;52.504;13.498;2022-07-31T04:14:35;16.20;99.90
40808;DHT22;26523;52.504;13.498;2022-07-31T04:17:01;16.30;99.90
40808;DHT22;26523;52.504;13.498;2022-07-31T04:19:26;16.40;99.90
40808;DHT22;26523;52.504;13.498;2022-07-31T04:21:56;16.50;99.90
40808;DHT22;26523;52.504;13.498;2022-07-31T04:24:22;16.50;99.90
40808;DHT22;26523;52.504;13.498;2022-07-31T04:26:48;16.60;99.90
40808;DHT22;26523;52.504;13.498;2022-07-31T04:29:15;16.50;99.90
40808;DHT22;26523;52.504;13.498;2022-07-31T04:31:40;16.50;99.90
40808;DHT22;26523;52.504;13.498;2022-07-31T04:34:06;16.60;99.90
40808;DHT22;26523;52.504;13.498;2022-07-31T04:36:32;16.70;99.90
40808;DHT22;26523;52.504;13.498;2022-07-31T04:38:58;16.70;99.90
40808;DHT22;26523;52.504;13.498;2022-07-31T04:41:24;16.80;99.90
40808;DHT22;26523;52.504;13.498;2022-07-31T04:43:50;16.90;99.90
40808;DHT22;26523;52.504;13.498;2022-07-31T04:46:15;17.00;99.90
40808;DHT22;26523;52.504;13.498;2022-07-31T04:48:41;17.00;99.90
40808;DHT22;26523;52.504;13.498;2022-07-31T04:51:07;17.10;99.90
40808;DHT22;26523;52.504;13.498;2022-07-31T04:53:32;17.20;99.90
40808;DHT22;26523;52.504;13.498;2022-07-31T04:55:58;17.20;99.90
40808;DHT22;26523;52.504;13.498;2022-07-31T04:58:42;17.50;99.90
40808;DHT22;26523;52.504;13.498;2022-07-31T05:01:08;17.60;99.90
40808;DHT22;26523;52.504;13.498;2022-07-31T05:03:33;17.70;99.90
40808;DHT22;26523;52.504;13.498;2022-07-31T05:06:09;17.90;99.90
40808;DHT22;26523;52.504;13.498;2022-07-31T05:08:35;18.00;99.90
40808;DHT22;26523;52.504;13.498;2022-07-31T05:11:01;18.00;99.90
40808;DHT22;26523;52.504;13.498;2022-07-31T05:13:58;18.20;99.90
40808;DHT22;26523;52.504;13.498;2022-07-31T05:16:25;18.40;99.90
40808;DHT22;26523;52.504;13.498;2022-07-31T05:18:51;18.50;99.90
40808;DHT22;26523;52.504;13.498;2022-07-31T05:21:17;18.70;99.90
40808;DHT22;26523;52.504;13.498;2022-07-31T05:23:44;18.80;99.90
40808;DHT22;26523;52.504;13.498;2022-07-31T05:26:10;19.00;99.90
40808;DHT22;26523;52.504;13.498;2022-07-31T05:31:06;19.30;99.90
40808;DHT22;26523;52.504;13.498;2022-07-31T05:33:32;19.40;99.90
40808;DHT22;26523;52.504;13.498;2022-07-31T05:35:58;19.70;99.90
40808;DHT22;26523;52.504;13.498;2022-07-31T05:38:25;19.90;99.90
40808;DHT22;26523;52.504;13.498;2022-07-31T05:40:51;20.10;99.90
40808;DHT22;26523;52.504;13.498;2022-07-31T05:43:16;20.30;99.90
40808;DHT22;26523;52.504;13.498;2022-07-31T05:45:42;20.50;99.90
40808;DHT22;26523;52.504;13.498;2022-07-31T05:48:07;20.70;99.90
40808;DHT22;26523;52.504;13.498;2022-07-31T05:50:33;20.90;99.90
40808;DHT22;26523;52.504;13.498;2022-07-31T05:52:59;21.10;99.90
40808;DHT22;26523;52.504;13.498;2022-07-31T05:55:25;21.30;99.90
40808;DHT22;26523;52.504;13.498;2022-07-31T05:57:51;21.80;99.90
40808;DHT22;26523;52.504;13.498;2022-07-31T06:00:16;23.50;99.90
40808;DHT22;26523;52.504;13.498;2022-07-31T06:02:43;26.00;95.10
40808;DHT22;26523;52.504;13.498;2022-07-31T06:05:09;28.40;85.80
40808;DHT22;26523;52.504;13.498;2022-07-31T06:07:35;30.20;74.90
40808;DHT22;26523;52.504;13.498;2022-07-31T06:10:01;31.50;69.10
40808;DHT22;26523;52.504;13.498;2022-07-31T06:12:27;32.40;62.90
40808;DHT22;26523;52.504;13.498;2022-07-31T06:14:53;33.30;60.30
40808;DHT22;26523;52.504;13.498;2022-07-31T06:17:18;34.40;58.50
40808;DHT22;26523;52.504;13.498;2022-07-31T06:19:44;35.00;56.80
40808;DHT22;26523;52.504;13.498;2022-07-31T06:22:09;35.60;56.40
40808;DHT22;26523;52.504;13.498;2022-07-31T06:24:35;35.90;55.40
40808;DHT22;26523;52.504;13.498;2022-07-31T06:27:02;36.60;54.20
40808;DHT22;26523;52.504;13.498;2022-07-31T06:29:28;36.80;53.90
40808;DHT22;26523;52.504;13.498;2022-07-31T06:31:54;37.40;53.00
40808;DHT22;26523;52.504;13.498;2022-07-31T06:34:20;38.00;52.10
40808;DHT22;26523;52.504;13.498;2022-07-31T06:36:46;37.50;52.10
40808;DHT22;26523;52.504;13.498;2022-07-31T06:39:11;37.40;53.10
40808;DHT22;26523;52.504;13.498;2022-07-31T06:41:37;37.80;51.70
40808;DHT22;26523;52.504;13.498;2022-07-31T06:44:09;37.70;51.30
40808;DHT22;26523;52.504;13.498;2022-07-31T06:46:35;37.60;51.30
40808;DHT22;26523;52.504;13.498;2022-07-31T06:49:01;37.90;50.70
40808;DHT22;26523;52.504;13.498;2022-07-31T06:51:27;38.10;50.10
40808;DHT22;26523;52.504;13.498;2022-07-31T06:53:52;38.70;50.40
40808;DHT22;26523;52.504;13.498;2022-07-31T06:56:18;39.40;49.70
40808;DHT22;26523;52.504;13.498;2022-07-31T06:58:44;39.80;48.80
40808;DHT22;26523;52.504;13.498;2022-07-31T07:01:09;40.10;48.50
40808;DHT22;26523;52.504;13.498;2022-07-31T07:03:35;40.30;47.90
40808;DHT22;26523;52.504;13.498;2022-07-31T07:06:00;40.20;47.90
40808;DHT22;26523;52.504;13.498;2022-07-31T07:08:28;40.50;47.90
40808;DHT22;26523;52.504;13.498;2022-07-31T07:10:54;40.20;47.50
40808;DHT22;26523;52.504;13.498;2022-07-31T07:13:19;40.20;47.30
40808;DHT22;26523;52.504;13.498;2022-07-31T07:15:45;40.00;47.40
40808;DHT22;26523;52.504;13.498;2022-07-31T07:18:11;40.00;47.50
40808;DHT22;26523;52.504;13.498;2022-07-31T07:20:36;40.60;47.30
40808;DHT22;26523;52.504;13.498;2022-07-31T07:23:02;40.90;46.70
40808;DHT22;26523;52.504;13.498;2022-07-31T07:25:28;40.50;46.60
40808;DHT22;26523;52.504;13.498;2022-07-31T07:27:53;41.10;46.50
40808;DHT22;26523;52.504;13.498;2022-07-31T07:30:21;41.30;46.10
40808;DHT22;26523;52.504;13.498;2022-07-31T07:32:47;41.10;46.20
40808;DHT22;26523;52.504;13.498;2022-07-31T07:35:12;41.10;46.70
40808;DHT22;26523;52.504;13.498;2022-07-31T07:37:41;41.60;46.40
40808;DHT22;26523;52.504;13.498;2022-07-31T07:40:08;42.40;46.10
40808;DHT22;26523;52.504;13.498;2022-07-31T07:42:33;42.20;45.80
40808;DHT22;26523;52.504;13.498;2022-07-31T07:45:00;42.40;45.50
40808;DHT22;26523;52.504;13.498;2022-07-31T07:47:25;42.20;45.10
40808;DHT22;26523;52.504;13.498;2022-07-31T07:49:51;41.60;45.60
40808;DHT22;26523;52.504;13.498;2022-07-31T07:52:17;42.40;45.00
40808;DHT22;26523;52.504;13.498;2022-07-31T07:54:42;42.40;44.70
40808;DHT22;26523;52.504;13.498;2022-07-31T07:57:13;42.70;44.30
40808;DHT22;26523;52.504;13.498;2022-07-31T07:59:39;42.40;44.20
40808;DHT22;26523;52.504;13.498;2022-07-31T08:02:05;42.40;43.90
40808;DHT22;26523;52.504;13.498;2022-07-31T08:04:30;42.30;44.00
40808;DHT22;26523;52.504;13.498;2022-07-31T08:06:56;41.80;43.90
40808;DHT22;26523;52.504;13.498;2022-07-31T08:09:22;40.20;45.90
40808;DHT22;26523;52.504;13.498;2022-07-31T08:11:49;39.10;46.40
40808;DHT22;26523;52.504;13.498;2022-07-31T08:14:14;39.60;46.20
40808;DHT22;26523;52.504;13.498;2022-07-31T08:16:40;39.90;45.00
40808;DHT22;26523;52.504;13.498;2022-07-31T08:19:06;39.60;45.80
40808;DHT22;26523;52.504;13.498;2022-07-31T08:21:31;39.10;46.40
40808;DHT22;26523;52.504;13.498;2022-07-31T08:23:59;38.50;46.90
40808;DHT22;26523;52.504;13.498;2022-07-31T08:26:25;37.80;47.40
40808;DHT22;26523;52.504;13.498;2022-07-31T08:28:50;37.20;47.80
40808;DHT22;26523;52.504;13.498;2022-07-31T08:31:19;36.90;48.00
40808;DHT22;26523;52.504;13.498;2022-07-31T08:33:45;36.30;48.50
40808;DHT22;26523;52.504;13.498;2022-07-31T08:36:11;35.20;50.10
40808;DHT22;26523;52.504;13.498;2022-07-31T08:38:37;34.50;50.80
40808;DHT22;26523;52.504;13.498;2022-07-31T08:41:04;34.50;51.10
40808;DHT22;26523;52.504;13.498;2022-07-31T08:43:30;35.00;50.70
40808;DHT22;26523;52.504;13.498;2022-07-31T08:45:58;35.50;49.90
40808;DHT22;26523;52.504;13.498;2022-07-31T08:48:26;34.70;50.60
40808;DHT22;26523;52.504;13.498;2022-07-31T08:50:54;33.60;52.20
40808;DHT22;26523;52.504;13.498;2022-07-31T08:53:20;33.00;53.20
40808;DHT22;26523;52.504;13.498;2022-07-31T08:55:47;33.00;53.30
40808;DHT22;26523;52.504;13.498;2022-07-31T08:58:13;32.60;53.90
40808;DHT22;26523;52.504;13.498;2022-07-31T09:00:41;32.10;54.60
40808;DHT22;26523;52.504;13.498;2022-07-31T09:03:07;31.60;55.30
40808;DHT22;26523;52.504;13.498;2022-07-31T09:05:34;31.90;55.60
40808;DHT22;26523;52.504;13.498;2022-07-31T09:08:02;32.60;54.10
40808;DHT22;26523;52.504;13.498;2022-07-31T09:10:27;32.40;54.00
40808;DHT22;26523;52.504;13.498;2022-07-31T09:12:54;31.70;55.30
40808;DHT22;26523;52.504;13.498;2022-07-31T09:15:21;30.80;56.70
40808;DHT22;26523;52.504;13.498;2022-07-31T09:17:47;30.90;56.70
40808;DHT22;26523;52.504;13.498;2022-07-31T09:20:24;31.60;55.60
40808;DHT22;26523;52.504;13.498;2022-07-31T09:23:09;32.70;54.60
40808;DHT22;26523;52.504;13.498;2022-07-31T09:25:35;33.40;53.30
40808;DHT22;26523;52.504;13.498;2022-07-31T09:28:06;33.90;52.70
40808;DHT22;26523;52.504;13.498;2022-07-31T09:30:32;33.10;53.10
40808;DHT22;26523;52.504;13.498;2022-07-31T09:33:14;32.40;54.30
40808;DHT22;26523;52.504;13.498;2022-07-31T09:35:51;31.90;54.80
40808;DHT22;26523;52.504;13.498;2022-07-31T09:38:17;33.20;53.90
40808;DHT22;26523;52.504;13.498;2022-07-31T09:40:43;35.60;51.10
40808;DHT22;26523;52.504;13.498;2022-07-31T09:43:17;36.50;49.30
40808;DHT22;26523;52.504;13.498;2022-07-31T09:46:02;35.80;49.70
40808;DHT22;26523;52.504;13.498;2022-07-31T09:48:29;34.80;50.70
40808;DHT22;26523;52.504;13.498;2022-07-31T09:50:56;34.40;51.20
40808;DHT22;26523;52.504;13.498;2022-07-31T09:53:23;33.30;52.50
40808;DHT22;26523;52.504;13.498;2022-07-31T09:55:50;32.40;54.00
40808;DHT22;26523;52.504;13.498;2022-07-31T09:58:15;31.30;55.80
40808;DHT22;26523;52.504;13.498;2022-07-31T10:00:41;30.80;56.20
40808;DHT22;26523;52.504;13.498;2022-07-31T10:03:08;30.20;57.60
40808;DHT22;26523;52.504;13.498;2022-07-31T10:05:37;29.40;58.80
40808;DHT22;26523;52.504;13.498;2022-07-31T10:08:03;29.10;58.70
40808;DHT22;26523;52.504;13.498;2022-07-31T10:10:30;28.90;59.10
40808;DHT22;26523;52.504;13.498;2022-07-31T10:12:58;28.50;59.60
40808;DHT22;26523;52.504;13.498;2022-07-31T10:15:25;28.40;60.00
40808;DHT22;26523;52.504;13.498;2022-07-31T10:17:51;28.40;60.10
40808;DHT22;26523;52.504;13.498;2022-07-31T10:20:21;28.20;60.30
40808;DHT22;26523;52.504;13.498;2022-07-31T10:22:52;28.10;60.80
40808;DHT22;26523;52.504;13.498;2022-07-31T10:25:28;28.10;61.10
40808;DHT22;26523;52.504;13.498;2022-07-31T10:27:55;28.00;61.50
40808;DHT22;26523;52.504;13.498;2022-07-31T10:30:22;27.90;61.60
40808;DHT22;26523;52.504;13.498;2022-07-31T10:32:49;27.70;61.60
40808;DHT22;26523;52.504;13.498;2022-07-31T10:35:15;27.70;62.10
40808;DHT22;26523;52.504;13.498;2022-07-31T10:40:28;27.50;62.20
40808;DHT22;26523;52.504;13.498;2022-07-31T10:43:18;27.60;62.00
40808;DHT22;26523;52.504;13.498;2022-07-31T10:45:52;27.40;62.60
40808;DHT22;26523;52.504;13.498;2022-07-31T10:48:18;27.40;62.40
40808;DHT22;26523;52.504;13.498;2022-07-31T10:50:45;27.40;62.60
40808;DHT22;26523;52.504;13.498;2022-07-31T10:53:15;27.30;63.10
40808;DHT22;26523;52.504;13.498;2022-07-31T10:55:42;27.50;62.70
40808;DHT22;26523;52.504;13.498;2022-07-31T10:58:13;27.50;62.80
40808;DHT22;26523;52.504;13.498;2022-07-31T11:00:40;27.60;62.60
40808;DHT22;26523;52.504;13.498;2022-07-31T11:03:17;27.80;61.90
40808;DHT22;26523;52.504;13.498;2022-07-31T11:05:58;27.80;62.00
40808;DHT22;26523;52.504;13.498;2022-07-31T11:08:24;28.00;62.40
40808;DHT22;26523;52.504;13.498;2022-07-31T11:10:51;28.30;61.20
40808;DHT22;26523;52.504;13.498;2022-07-31T11:13:18;28.40;61.10
40808;DHT22;26523;52.504;13.498;2022-07-31T11:15:44;28.40;60.90
40808;DHT22;26523;52.504;13.498;2022-07-31T11:18:14;28.20;61.50
40808;DHT22;26523;52.504;13.498;2022-07-31T11:20:40;28.40;60.90
40808;DHT22;26523;52.504;13.498;2022-07-31T11:23:13;28.60;60.30
40808;DHT22;26523;52.504;13.498;2022-07-31T11:25:41;28.80;60.10
40808;DHT22;26523;52.504;13.498;2022-07-31T11:28:18;28.80;61.10
40808;DHT22;26523;52.504;13.498;2022-07-31T11:31:05;28.50;60.60
40808;DHT22;26523;52.504;13.498;2022-07-31T11:33:44;28.60;60.80
40808;DHT22;26523;52.504;13.498;2022-07-31T11:36:21;28.70;60.60
40808;DHT22;26523;52.504;13.498;2022-07-31T11:38:52;28.90;60.50
40808;DHT22;26523;52.504;13.498;2022-07-31T11:41:18;28.80;60.40
40808;DHT22;26523;52.504;13.498;2022-07-31T11:43:47;29.20;60.00
40808;DHT22;26523;52.504;13.498;2022-07-31T11:46:23;28.90;60.30
40808;DHT22;26523;52.504;13.498;2022-07-31T11:48:50;28.90;60.50
40808;DHT22;26523;52.504;13.498;2022-07-31T11:51:19;28.90;60.40
40808;DHT22;26523;52.504;13.498;2022-07-31T11:53:46;28.70;60.70
40808;DHT22;26523;52.504;13.498;2022-07-31T11:56:12;28.70;60.30
40808;DHT22;26523;52.504;13.498;2022-07-31T11:58:45;28.80;60.20
40808;DHT22;26523;52.504;13.498;2022-07-31T12:01:11;28.80;60.30
40808;DHT22;26523;52.504;13.498;2022-07-31T12:03:37;28.80;60.20
40808;DHT22;26523;52.504;13.498;2022-07-31T12:06:06;28.80;60.40
40808;DHT22;26523;52.504;13.498;2022-07-31T12:08:32;28.70;60.50
40808;DHT22;26523;52.504;13.498;2022-07-31T12:11:00;28.60;60.70
40808;DHT22;26523;52.504;13.498;2022-07-31T12:13:27;28.70;60.40
40808;DHT22;26523;52.504;13.498;2022-07-31T12:16:07;28.50;60.70
40808;DHT22;26523;52.504;13.498;2022-07-31T12:18:54;27.90;61.80
40808;DHT22;26523;52.504;13.498;2022-07-31T12:21:36;27.70;62.50
40808;DHT22;26523;52.504;13.498;2022-07-31T12:24:12;27.50;62.20
40808;DHT22;26523;52.504;13.498;2022-07-31T12:26:42;27.40;62.80
40808;DHT22;26523;52.504;13.498;2022-07-31T12:29:10;27.60;62.50
40808;DHT22;26523;52.504;13.498;2022-07-31T12:32:02;27.60;62.50
40808;DHT22;26523;52.504;13.498;2022-07-31T12:34:33;28.00;62.10
40808;DHT22;26523;52.504;13.498;2022-07-31T12:39:37;28.10;61.30
40808;DHT22;26523;52.504;13.498;2022-07-31T12:42:04;28.30;61.20
40808;DHT22;26523;52.504;13.498;2022-07-31T12:44:30;28.00;60.60
40808;DHT22;26523;52.504;13.498;2022-07-31T12:46:56;27.80;61.10
40808;DHT22;26523;52.504;13.498;2022-07-31T12:49:21;27.90;61.50
40808;DHT22;26523;52.504;13.498;2022-07-31T12:51:47;27.70;61.80
40808;DHT22;26523;52.504;13.498;2022-07-31T12:54:16;27.60;62.50
40808;DHT22;26523;52.504;13.498;2022-07-31T12:56:43;27.60;63.20
40808;DHT22;26523;52.504;13.498;2022-07-31T12:59:10;27.40;63.10
40808;DHT22;26523;52.504;13.498;2022-07-31T13:01:36;27.40;63.30
40808;DHT22;26523;52.504;13.498;2022-07-31T13:04:02;27.40;63.30
40808;DHT22;26523;52.504;13.498;2022-07-31T13:06:29;27.50;63.70
40808;DHT22;26523;52.504;13.498;2022-07-31T13:08:55;27.40;63.80
40808;DHT22;26523;52.504;13.498;2022-07-31T13:11:21;27.40;63.70
40808;DHT22;26523;52.504;13.498;2022-07-31T13:13:49;27.40;63.80
40808;DHT22;26523;52.504;13.498;2022-07-31T13:16:15;27.20;64.20
40808;DHT22;26523;52.504;13.498;2022-07-31T13:18:40;27.10;64.80
40808;DHT22;26523;52.504;13.498;2022-07-31T13:21:06;27.10;64.90
40808;DHT22;26523;52.504;13.498;2022-07-31T13:23:32;27.20;64.80
40808;DHT22;26523;52.504;13.498;2022-07-31T13:25:58;27.40;64.00
40808;DHT22;26523;52.504;13.498;2022-07-31T13:28:24;27.70;62.70
40808;DHT22;26523;52.504;13.498;2022-07-31T13:30:50;28.10;61.80
40808;DHT22;26523;52.504;13.498;2022-07-31T13:33:16;28.20;61.60
40808;DHT22;26523;52.504;13.498;2022-07-31T13:35:41;28.30;61.30
40808;DHT22;26523;52.504;13.498;2022-07-31T13:38:07;28.40;60.60
40808;DHT22;26523;52.504;13.498;2022-07-31T13:40:32;28.60;60.40
40808;DHT22;26523;52.504;13.498;2022-07-31T13:43:17;28.50;60.10
40808;DHT22;26523;52.504;13.498;2022-07-31T13:45:42;28.50;60.30
40808;DHT22;26523;52.504;13.498;2022-07-31T13:48:08;28.60;60.40
40808;DHT22;26523;52.504;13.498;2022-07-31T13:50:34;28.60;60.80
40808;DHT22;26523;52.504;13.498;2022-07-31T13:53:38;28.60;60.40
40808;DHT22;26523;52.504;13.498;2022-07-31T13:56:04;28.30;60.00
40808;DHT22;26523;52.504;13.498;2022-07-31T13:58:29;28.00;60.30
40808;DHT22;26523;52.504;13.498;2022-07-31T14:00:55;28.00;60.00
40808;DHT22;26523;52.504;13.498;2022-07-31T14:03:22;27.90;60.50
40808;DHT22;26523;52.504;13.498;2022-07-31T14:05:48;27.70;61.00
40808;DHT22;26523;52.504;13.498;2022-07-31T14:08:14;27.60;61.50
40808;DHT22;26523;52.504;13.498;2022-07-31T14:10:40;27.30;62.00
40808;DHT22;26523;52.504;13.498;2022-07-31T14:13:06;27.20;62.20
40808;DHT22;26523;52.504;13.498;2022-07-31T14:15:31;27.30;61.50
40808;DHT22;26523;52.504;13.498;2022-07-31T14:17:57;27.40;61.50
40808;DHT22;26523;52.504;13.498;2022-07-31T14:20:23;27.50;61.50
40808;DHT22;26523;52.504;13.498;2022-07-31T14:22:49;27.50;61.40
40808;DHT22;26523;52.504;13.498;2022-07-31T14:25:15;27.60;61.30
40808;DHT22;26523;52.504;13.498;2022-07-31T14:27:42;27.40;61.30
40808;DHT22;26523;52.504;13.498;2022-07-31T14:30:09;27.30;61.20
40808;DHT22;26523;52.504;13.498;2022-07-31T14:32:35;27.40;61.60
40808;DHT22;26523;52.504;13.498;2022-07-31T14:35:01;27.50;62.10
40808;DHT22;26523;52.504;13.498;2022-07-31T14:37:26;27.60;60.90
40808;DHT22;26523;52.504;13.498;2022-07-31T14:39:52;27.50;61.50
40808;DHT22;26523;52.504;13.498;2022-07-31T14:42:18;27.70;61.20
40808;DHT22;26523;52.504;13.498;2022-07-31T14:44:45;27.90;60.90
40808;DHT22;26523;52.504;13.498;2022-07-31T14:47:12;27.80;60.90
40808;DHT22;26523;52.504;13.498;2022-07-31T14:49:39;27.80;61.10
40808;DHT22;26523;52.504;13.498;2022-07-31T14:52:05;27.80;61.10
40808;DHT22;26523;52.504;13.498;2022-07-31T14:54:30;28.00;60.60
40808;DHT22;26523;52.504;13.498;2022-07-31T14:56:57;27.90;60.50
40808;DHT22;26523;52.504;13.498;2022-07-31T14:59:30;28.00;60.00
40808;DHT22;26523;52.504;13.498;2022-07-31T15:01:56;28.00;60.20
40808;DHT22;26523;52.504;13.498;2022-07-31T15:04:22;28.20;59.70
40808;DHT22;26523;52.504;13.498;2022-07-31T15:06:47;28.10;59.70
40808;DHT22;26523;52.504;13.498;2022-07-31T15:09:13;28.20;59.60
40808;DHT22;26523;52.504;13.498;2022-07-31T15:11:39;28.10;59.80
40808;DHT22;26523;52.504;13.498;2022-07-31T15:14:04;28.20;59.90
40808;DHT22;26523;52.504;13.498;2022-07-31T15:16:30;28.30;59.30
40808;DHT22;26523;52.504;13.498;2022-07-31T15:18:56;28.10;58.80
40808;DHT22;26523;52.504;13.498;2022-07-31T15:21:22;28.10;59.30
40808;DHT22;26523;52.504;13.498;2022-07-31T15:23:48;28.00;59.00
40808;DHT22;26523;52.504;13.498;2022-07-31T15:26:13;27.70;59.80
40808;DHT22;26523;52.504;13.498;2022-07-31T15:28:39;27.50;59.10
40808;DHT22;26523;52.504;13.498;2022-07-31T15:31:04;27.50;59.40